sensor_id;sensor_type;location;lat;lon;timestamp;pressure;altitude;pressure_sealevel;temperature;humidity
56831;BME280;42713;42.676;23.352;2022-07-06T00:01:35;94741.91;;;21.82;86.30
56831;BME280;42713;42.676;23.352;2022-07-06T00:04:01;94735.31;;;21.80;86.98
56831;BME280;42713;42.676;23.352;2022-07-06T00:06:27;94734.97;;;21.72;87.02
56831;BME280;42713;42.676;23.352;2022-07-06T00:08:52;94733.25;;;21.68;87.95
56831;BME280;42713;42.676;23.352;2022-07-06T00:11:18;94742.66;;;21.65;87.01
56831;BME280;42713;42.676;23.352;2022-07-06T00:13:43;94752.22;;;21.66;88.12
56831;BME280;42713;42.676;23.352;2022-07-06T00:16:09;94743.41;;;21.57;85.81
56831;BME280;42713;42.676;23.352;2022-07-06T00:18:34;94743.59;;;21.60;85.58
56831;BME280;42713;42.676;23.352;2022-07-06T00:21:00;94757.56;;;21.66;87.25
56831;BME280;42713;42.676;23.352;2022-07-06T00:23:25;94764.59;;;21.62;87.46
56831;BME280;42713;42.676;23.352;2022-07-06T00:25:51;94764.31;;;21.64;87.71
56831;BME280;42713;42.676;23.352;2022-07-06T00:28:16;94768.50;;;21.56;86.81
56831;BME280;42713;42.676;23.352;2022-07-06T00:30:41;94777.91;;;21.53;84.57
56831;BME280;42713;42.676;23.352;2022-07-06T00:33:07;94788.44;;;21.58;87.99
56831;BME280;42713;42.676;23.352;2022-07-06T00:35:33;94783.53;;;21.52;88.17
56831;BME280;42713;42.676;23.352;2022-07-06T00:37:58;94784.75;;;21.45;89.71
56831;BME280;42713;42.676;23.352;2022-07-06T00:40:24;94785.88;;;21.53;87.52
56831;BME280;42713;42.676;23.352;2022-07-06T00:42:50;94784.00;;;21.54;87.79
56831;BME280;42713;42.676;23.352;2022-07-06T00:45:17;94784.81;;;21.54;85.84
56831;BME280;42713;42.676;23.352;2022-07-06T00:47:43;94786.66;;;21.54;86.31
56831;BME280;42713;42.676;23.352;2022-07-06T00:50:11;94787.47;;;21.54;85.46
56831;BME280;42713;42.676;23.352;2022-07-06T00:52:45;94786.97;;;21.52;87.13
56831;BME280;42713;42.676;23.352;2022-07-06T00:55:11;94784.28;;;21.43;83.44
56831;BME280;42713;42.676;23.352;2022-07-06T00:57:38;94770.31;;;21.38;84.27
56831;BME280;42713;42.676;23.352;2022-07-06T01:00:07;94758.56;;;21.39;85.21
56831;BME280;42713;42.676;23.352;2022-07-06T01:02:33;94760.09;;;21.31;84.82
56831;BME280;42713;42.676;23.352;2022-07-06T01:05:00;94753.69;;;21.23;85.56
56831;BME280;42713;42.676;23.352;2022-07-06T01:07:26;94736.78;;;21.28;85.99
56831;BME280;42713;42.676;23.352;2022-07-06T01:09:53;94739.72;;;21.26;87.54
56831;BME280;42713;42.676;23.352;2022-07-06T01:12:18;94725.78;;;21.21;84.59
56831;BME280;42713;42.676;23.352;2022-07-06T01:14:45;94729.84;;;21.18;86.55
56831;BME280;42713;42.676;23.352;2022-07-06T01:17:10;94725.78;;;21.21;87.56
56831;BME280;42713;42.676;23.352;2022-07-06T01:19:37;94733.78;;;21.21;89.32
56831;BME280;42713;42.676;23.352;2022-07-06T01:22:03;94736.28;;;21.26;87.03
56831;BME280;42713;42.676;23.352;2022-07-06T01:24:28;94737.88;;;21.27;86.10
56831;BME280;42713;42.676;23.352;2022-07-06T01:26:54;94732.22;;;21.20;86.73
56831;BME280;42713;42.676;23.352;2022-07-06T01:29:19;94736.63;;;21.24;87.00
56831;BME280;42713;42.676;23.352;2022-07-06T01:31:49;94730.31;;;21.20;83.47
56831;BME280;42713;42.676;23.352;2022-07-06T01:34:16;94730.94;;;21.08;81.77
56831;BME280;42713;42.676;23.352;2022-07-06T01:36:43;94725.53;;;20.91;82.36
56831;BME280;42713;42.676;23.352;2022-07-06T01:39:09;94733.72;;;20.72;82.31
56831;BME280;42713;42.676;23.352;2022-07-06T01:41:34;94736.97;;;20.60;82.47
56831;BME280;42713;42.676;23.352;2022-07-06T01:44:00;94726.75;;;20.53;82.77
56831;BME280;42713;42.676;23.352;2022-07-06T01:46:26;94731.47;;;20.56;84.31
56831;BME280;42713;42.676;23.352;2022-07-06T01:48:52;94730.97;;;20.54;85.31
56831;BME280;42713;42.676;23.352;2022-07-06T01:51:18;94727.97;;;20.47;83.84
56831;BME280;42713;42.676;23.352;2022-07-06T01:53:43;94739.53;;;20.42;83.16
56831;BME280;42713;42.676;23.352;2022-07-06T01:56:10;94746.19;;;20.31;83.33
56831;BME280;42713;42.676;23.352;2022-07-06T01:58:36;94748.97;;;20.26;83.35
56831;BME280;42713;42.676;23.352;2022-07-06T02:01:16;94753.31;;;20.21;84.45
56831;BME280;42713;42.676;23.352;2022-07-06T02:03:42;94752.25;;;20.23;83.95
56831;BME280;42713;42.676;23.352;2022-07-06T02:06:08;94752.47;;;20.12;83.38
56831;BME280;42713;42.676;23.352;2022-07-06T02:08:34;94754.16;;;20.08;83.45
56831;BME280;42713;42.676;23.352;2022-07-06T02:11:00;94751.69;;;20.12;84.71
56831;BME280;42713;42.676;23.352;2022-07-06T02:13:25;94745.09;;;20.09;82.73
56831;BME280;42713;42.676;23.352;2022-07-06T02:15:51;94741.19;;;20.06;84.26
56831;BME280;42713;42.676;23.352;2022-07-06T02:18:16;94750.09;;;20.11;85.58
56831;BME280;42713;42.676;23.352;2022-07-06T02:20:42;94745.28;;;20.13;86.42
56831;BME280;42713;42.676;23.352;2022-07-06T02:23:07;94750.09;;;20.11;87.81
56831;BME280;42713;42.676;23.352;2022-07-06T02:25:33;94749.63;;;20.09;87.16
56831;BME280;42713;42.676;23.352;2022-07-06T02:27:59;94747.34;;;20.16;87.67
56831;BME280;42713;42.676;23.352;2022-07-06T02:30:24;94755.59;;;20.14;87.31
56831;BME280;42713;42.676;23.352;2022-07-06T02:32:49;94742.94;;;20.11;89.46
56831;BME280;42713;42.676;23.352;2022-07-06T02:35:15;94742.19;;;20.19;88.04
56831;BME280;42713;42.676;23.352;2022-07-06T02:37:40;94740.81;;;20.22;88.66
56831;BME280;42713;42.676;23.352;2022-07-06T02:40:06;94737.84;;;20.24;87.11
56831;BME280;42713;42.676;23.352;2022-07-06T02:42:32;94745.88;;;20.32;86.83
56831;BME280;42713;42.676;23.352;2022-07-06T02:44:57;94740.38;;;20.29;86.58
56831;BME280;42713;42.676;23.352;2022-07-06T02:47:23;94748.97;;;20.26;87.04
56831;BME280;42713;42.676;23.352;2022-07-06T02:49:48;94744.25;;;20.23;84.50
56831;BME280;42713;42.676;23.352;2022-07-06T02:52:14;94736.28;;;20.23;85.36
56831;BME280;42713;42.676;23.352;2022-07-06T02:54:39;94749.88;;;20.21;86.19
56831;BME280;42713;42.676;23.352;2022-07-06T02:57:05;94746.72;;;20.19;87.04
56831;BME280;42713;42.676;23.352;2022-07-06T02:59:30;94748.00;;;20.21;87.08
56831;BME280;42713;42.676;23.352;2022-07-06T03:01:56;94751.63;;;20.26;86.01
56831;BME280;42713;42.676;23.352;2022-07-06T03:04:21;94740.50;;;20.24;85.99
56831;BME280;42713;42.676;23.352;2022-07-06T03:06:47;94742.56;;;20.27;85.11
56831;BME280;42713;42.676;23.352;2022-07-06T03:09:12;94742.69;;;20.21;86.79
56831;BME280;42713;42.676;23.352;2022-07-06T03:11:38;94744.53;;;20.21;86.62
56831;BME280;42713;42.676;23.352;2022-07-06T03:14:03;94746.72;;;20.19;86.21
56831;BME280;42713;42.676;23.352;2022-07-06T03:16:30;94749.88;;;20.21;87.35
56831;BME280;42713;42.676;23.352;2022-07-06T03:18:55;94755.19;;;20.21;86.20
56831;BME280;42713;42.676;23.352;2022-07-06T03:21:22;94749.59;;;20.23;85.96
56831;BME280;42713;42.676;23.352;2022-07-06T03:23:47;94753.44;;;20.16;85.82
56831;BME280;42713;42.676;23.352;2022-07-06T03:26:12;94757.47;;;20.14;83.26
56831;BME280;42713;42.676;23.352;2022-07-06T03:28:38;94756.41;;;20.15;83.75
56831;BME280;42713;42.676;23.352;2022-07-06T03:31:03;94756.69;;;20.13;85.15
56831;BME280;42713;42.676;23.352;2022-07-06T03:33:29;94760.31;;;20.17;84.09
56831;BME280;42713;42.676;23.352;2022-07-06T03:35:54;94770.66;;;20.19;85.26
56831;BME280;42713;42.676;23.352;2022-07-06T03:38:19;94772.84;;;20.17;85.51
56831;BME280;42713;42.676;23.352;2022-07-06T03:40:45;94764.97;;;20.12;84.24
56831;BME280;42713;42.676;23.352;2022-07-06T03:43:11;94773.44;;;20.14;84.93
56831;BME280;42713;42.676;23.352;2022-07-06T03:45:36;94765.56;;;20.09;80.47
56831;BME280;42713;42.676;23.352;2022-07-06T03:48:01;94777.31;;;20.08;80.08
56831;BME280;42713;42.676;23.352;2022-07-06T03:50:27;94773.84;;;20.07;81.53
56831;BME280;42713;42.676;23.352;2022-07-06T03:52:52;94774.44;;;20.04;83.62
56831;BME280;42713;42.676;23.352;2022-07-06T03:55:18;94773.97;;;20.02;78.38
56831;BME280;42713;42.676;23.352;2022-07-06T03:57:43;94771.44;;;19.97;77.39
56831;BME280;42713;42.676;23.352;2022-07-06T04:00:09;94768.41;;;19.89;77.74
56831;BME280;42713;42.676;23.352;2022-07-06T04:02:35;94774.31;;;19.86;79.77
56831;BME280;42713;42.676;23.352;2022-07-06T04:05:00;94780.22;;;19.83;76.80
56831;BME280;42713;42.676;23.352;2022-07-06T04:07:26;94771.66;;;19.72;79.28
56831;BME280;42713;42.676;23.352;2022-07-06T04:09:51;94780.72;;;19.71;79.41
56831;BME280;42713;42.676;23.352;2022-07-06T04:12:17;94782.09;;;19.69;78.83
56831;BME280;42713;42.676;23.352;2022-07-06T04:14:42;94784.28;;;19.53;78.71
56831;BME280;42713;42.676;23.352;2022-07-06T04:17:08;94782.91;;;19.41;79.55
56831;BME280;42713;42.676;23.352;2022-07-06T04:19:52;94784.22;;;19.44;80.27
56831;BME280;42713;42.676;23.352;2022-07-06T04:22:17;94778.59;;;19.46;79.22
56831;BME280;42713;42.676;23.352;2022-07-06T04:24:43;94791.88;;;19.46;79.82
56831;BME280;42713;42.676;23.352;2022-07-06T04:27:09;94788.13;;;19.47;79.23
56831;BME280;42713;42.676;23.352;2022-07-06T04:29:34;94786.88;;;19.44;78.78
56831;BME280;42713;42.676;23.352;2022-07-06T04:31:59;94793.84;;;19.40;80.87
56831;BME280;42713;42.676;23.352;2022-07-06T04:34:25;94794.81;;;19.30;80.18
56831;BME280;42713;42.676;23.352;2022-07-06T04:36:50;94801.13;;;19.20;79.34
56831;BME280;42713;42.676;23.352;2022-07-06T04:39:16;94804.75;;;19.10;80.50
56831;BME280;42713;42.676;23.352;2022-07-06T04:41:51;94798.78;;;19.05;81.50
56831;BME280;42713;42.676;23.352;2022-07-06T04:44:17;94801.44;;;19.05;79.34
56831;BME280;42713;42.676;23.352;2022-07-06T04:46:42;94832.09;;;18.97;80.67
56831;BME280;42713;42.676;23.352;2022-07-06T04:49:07;94818.09;;;18.91;81.65
56831;BME280;42713;42.676;23.352;2022-07-06T04:51:33;94831.06;;;18.93;82.39
56831;BME280;42713;42.676;23.352;2022-07-06T04:53:59;94835.66;;;18.87;82.01
56831;BME280;42713;42.676;23.352;2022-07-06T04:56:24;94832.03;;;18.83;82.44
56831;BME280;42713;42.676;23.352;2022-07-06T04:58:50;94852.25;;;18.79;83.75
56831;BME280;42713;42.676;23.352;2022-07-06T05:01:16;94827.56;;;18.64;81.74
56831;BME280;42713;42.676;23.352;2022-07-06T05:03:41;94844.72;;;18.53;82.42
56831;BME280;42713;42.676;23.352;2022-07-06T05:06:07;94878.13;;;18.54;82.10
56831;BME280;42713;42.676;23.352;2022-07-06T05:08:33;94844.88;;;18.43;82.97
56831;BME280;42713;42.676;23.352;2022-07-06T05:10:59;94837.91;;;18.47;83.44
56831;BME280;42713;42.676;23.352;2022-07-06T05:13:24;94846.88;;;18.51;83.58
56831;BME280;42713;42.676;23.352;2022-07-06T05:15:50;94848.75;;;18.50;83.83
56831;BME280;42713;42.676;23.352;2022-07-06T05:18:15;94855.22;;;18.58;84.00
56831;BME280;42713;42.676;23.352;2022-07-06T05:20:41;94859.31;;;18.70;83.48
56831;BME280;42713;42.676;23.352;2022-07-06T05:23:07;94850.38;;;18.65;83.60
56831;BME280;42713;42.676;23.352;2022-07-06T05:25:33;94865.41;;;18.70;83.10
56831;BME280;42713;42.676;23.352;2022-07-06T05:27:59;94855.06;;;18.69;83.49
56831;BME280;42713;42.676;23.352;2022-07-06T05:30:25;94861.44;;;18.67;82.52
56831;BME280;42713;42.676;23.352;2022-07-06T05:32:51;94878.19;;;18.68;82.77
56831;BME280;42713;42.676;23.352;2022-07-06T05:35:17;94867.56;;;18.68;83.41
56831;BME280;42713;42.676;23.352;2022-07-06T05:37:42;94860.81;;;18.76;83.24
56831;BME280;42713;42.676;23.352;2022-07-06T05:40:08;94852.75;;;18.81;81.94
56831;BME280;42713;42.676;23.352;2022-07-06T05:42:34;94869.94;;;18.83;81.83
56831;BME280;42713;42.676;23.352;2022-07-06T05:44:59;94871.47;;;18.90;81.87
56831;BME280;42713;42.676;23.352;2022-07-06T05:47:25;94870.75;;;18.84;80.99
56831;BME280;42713;42.676;23.352;2022-07-06T05:50:09;94877.91;;;18.83;80.35
56831;BME280;42713;42.676;23.352;2022-07-06T05:52:38;94875.16;;;18.75;81.58
56831;BME280;42713;42.676;23.352;2022-07-06T05:55:04;94875.94;;;18.75;80.04
56831;BME280;42713;42.676;23.352;2022-07-06T05:57:30;94871.44;;;18.76;80.64
56831;BME280;42713;42.676;23.352;2022-07-06T05:59:55;94879.59;;;18.79;80.76
56831;BME280;42713;42.676;23.352;2022-07-06T06:02:20;94877.50;;;18.76;80.79
56831;BME280;42713;42.676;23.352;2022-07-06T06:04:46;94891.56;;;18.77;79.69
56831;BME280;42713;42.676;23.352;2022-07-06T06:07:12;94878.41;;;18.86;79.79
56831;BME280;42713;42.676;23.352;2022-07-06T06:09:37;94874.13;;;18.90;80.36
56831;BME280;42713;42.676;23.352;2022-07-06T06:12:03;94872.47;;;18.94;79.97
56831;BME280;42713;42.676;23.352;2022-07-06T06:14:29;94870.72;;;19.03;80.33
56831;BME280;42713;42.676;23.352;2022-07-06T06:16:54;94873.31;;;19.08;78.61
56831;BME280;42713;42.676;23.352;2022-07-06T06:19:20;94867.88;;;19.13;79.23
56831;BME280;42713;42.676;23.352;2022-07-06T06:21:46;94879.13;;;19.24;79.43
56831;BME280;42713;42.676;23.352;2022-07-06T06:24:11;94868.97;;;19.26;78.47
56831;BME280;42713;42.676;23.352;2022-07-06T06:26:37;94864.47;;;19.27;78.61
56831;BME280;42713;42.676;23.352;2022-07-06T06:29:02;94869.97;;;19.31;78.27
56831;BME280;42713;42.676;23.352;2022-07-06T06:31:28;94873.63;;;19.35;77.19
56831;BME280;42713;42.676;23.352;2022-07-06T06:33:53;94870.47;;;19.33;77.76
56831;BME280;42713;42.676;23.352;2022-07-06T06:36:19;94869.88;;;19.36;79.23
56831;BME280;42713;42.676;23.352;2022-07-06T06:38:44;94868.31;;;19.35;78.52
56831;BME280;42713;42.676;23.352;2022-07-06T06:41:10;94866.63;;;19.39;79.23
56831;BME280;42713;42.676;23.352;2022-07-06T06:43:35;94857.97;;;19.47;77.30
56831;BME280;42713;42.676;23.352;2022-07-06T06:46:01;94870.28;;;19.57;77.64
56831;BME280;42713;42.676;23.352;2022-07-06T06:48:26;94862.81;;;19.59;76.81
56831;BME280;42713;42.676;23.352;2022-07-06T06:50:51;94865.38;;;19.64;76.19
56831;BME280;42713;42.676;23.352;2022-07-06T06:53:17;94869.78;;;19.69;76.42
56831;BME280;42713;42.676;23.352;2022-07-06T06:55:42;94852.66;;;19.61;75.88
56831;BME280;42713;42.676;23.352;2022-07-06T06:58:08;94861.03;;;19.68;75.66
56831;BME280;42713;42.676;23.352;2022-07-06T07:00:33;94851.47;;;19.81;75.33
56831;BME280;42713;42.676;23.352;2022-07-06T07:02:59;94854.91;;;19.82;75.71
56831;BME280;42713;42.676;23.352;2022-07-06T07:05:25;94864.19;;;19.98;74.74
56831;BME280;42713;42.676;23.352;2022-07-06T07:07:50;94851.97;;;19.97;75.11
56831;BME280;42713;42.676;23.352;2022-07-06T07:10:16;94865.47;;;20.01;75.59
56831;BME280;42713;42.676;23.352;2022-07-06T07:12:48;94856.59;;;20.05;72.85
56831;BME280;42713;42.676;23.352;2022-07-06T07:15:14;94860.22;;;19.96;73.05
56831;BME280;42713;42.676;23.352;2022-07-06T07:17:41;94867.72;;;19.94;73.81
56831;BME280;42713;42.676;23.352;2022-07-06T07:20:07;94857.75;;;19.99;74.03
56831;BME280;42713;42.676;23.352;2022-07-06T07:22:33;94869.97;;;20.00;73.94
56831;BME280;42713;42.676;23.352;2022-07-06T07:24:58;94852.94;;;20.01;73.16
56831;BME280;42713;42.676;23.352;2022-07-06T07:27:25;94862.97;;;20.04;72.71
56831;BME280;42713;42.676;23.352;2022-07-06T07:29:50;94856.22;;;19.98;72.40
56831;BME280;42713;42.676;23.352;2022-07-06T07:32:17;94867.03;;;20.02;72.81
56831;BME280;42713;42.676;23.352;2022-07-06T07:34:42;94852.53;;;20.08;72.42
56831;BME280;42713;42.676;23.352;2022-07-06T07:37:08;94851.94;;;20.11;72.48
56831;BME280;42713;42.676;23.352;2022-07-06T07:39:33;94858.41;;;20.19;73.14
56831;BME280;42713;42.676;23.352;2022-07-06T07:41:59;94857.94;;;20.17;73.03
56831;BME280;42713;42.676;23.352;2022-07-06T07:44:24;94853.28;;;20.23;72.60
56831;BME280;42713;42.676;23.352;2022-07-06T07:46:52;94859.25;;;20.28;73.24
56831;BME280;42713;42.676;23.352;2022-07-06T07:49:18;94844.50;;;20.22;73.03
56831;BME280;42713;42.676;23.352;2022-07-06T07:51:44;94847.66;;;20.24;73.35
56831;BME280;42713;42.676;23.352;2022-07-06T07:54:12;94854.66;;;20.20;71.91
56831;BME280;42713;42.676;23.352;2022-07-06T07:56:38;94845.56;;;20.35;71.47
56831;BME280;42713;42.676;23.352;2022-07-06T07:59:07;94842.47;;;20.42;71.91
56831;BME280;42713;42.676;23.352;2022-07-06T08:01:33;94833.78;;;20.50;70.89
56831;BME280;42713;42.676;23.352;2022-07-06T08:03:59;94851.44;;;20.46;68.23
56831;BME280;42713;42.676;23.352;2022-07-06T08:06:25;94849.06;;;20.44;71.30
56831;BME280;42713;42.676;23.352;2022-07-06T08:08:51;94841.25;;;20.48;68.75
56831;BME280;42713;42.676;23.352;2022-07-06T08:11:16;94841.47;;;20.51;69.41
56831;BME280;42713;42.676;23.352;2022-07-06T08:13:42;94850.41;;;20.56;69.95
56831;BME280;42713;42.676;23.352;2022-07-06T08:16:07;94844.66;;;20.62;69.15
56831;BME280;42713;42.676;23.352;2022-07-06T08:18:35;94845.44;;;20.77;68.54
56831;BME280;42713;42.676;23.352;2022-07-06T08:21:00;94854.25;;;20.86;67.61
56831;BME280;42713;42.676;23.352;2022-07-06T08:23:26;94847.53;;;20.89;67.61
56831;BME280;42713;42.676;23.352;2022-07-06T08:25:51;94848.84;;;21.00;69.10
56831;BME280;42713;42.676;23.352;2022-07-06T08:28:17;94847.19;;;21.13;69.56
56831;BME280;42713;42.676;23.352;2022-07-06T08:30:42;94849.69;;;21.18;69.44
56831;BME280;42713;42.676;23.352;2022-07-06T08:33:08;94840.78;;;21.23;67.68
56831;BME280;42713;42.676;23.352;2022-07-06T08:35:33;94852.25;;;21.32;68.10
56831;BME280;42713;42.676;23.352;2022-07-06T08:37:58;94835.53;;;21.40;68.02
56831;BME280;42713;42.676;23.352;2022-07-06T08:40:26;94847.03;;;21.50;66.81
56831;BME280;42713;42.676;23.352;2022-07-06T08:42:54;94843.56;;;21.49;64.92
56831;BME280;42713;42.676;23.352;2022-07-06T08:45:25;94831.03;;;21.50;65.49
56831;BME280;42713;42.676;23.352;2022-07-06T08:47:50;94846.09;;;21.54;66.55
56831;BME280;42713;42.676;23.352;2022-07-06T08:50:19;94841.69;;;21.50;66.36
56831;BME280;42713;42.676;23.352;2022-07-06T08:52:47;94841.06;;;21.53;66.01
56831;BME280;42713;42.676;23.352;2022-07-06T08:55:13;94846.38;;;21.53;66.95
56831;BME280;42713;42.676;23.352;2022-07-06T08:57:39;94843.09;;;21.56;66.32
56831;BME280;42713;42.676;23.352;2022-07-06T09:00:07;94841.72;;;21.58;65.90
56831;BME280;42713;42.676;23.352;2022-07-06T09:02:34;94842.97;;;21.61;66.48
56831;BME280;42713;42.676;23.352;2022-07-06T09:05:02;94842.69;;;21.71;64.53
56831;BME280;42713;42.676;23.352;2022-07-06T09:07:29;94839.94;;;21.94;63.27
56831;BME280;42713;42.676;23.352;2022-07-06T09:09:56;94843.72;;;22.02;63.95
56831;BME280;42713;42.676;23.352;2022-07-06T09:12:26;94850.63;;;22.03;64.35
56831;BME280;42713;42.676;23.352;2022-07-06T09:14:58;94841.97;;;22.06;64.61
56831;BME280;42713;42.676;23.352;2022-07-06T09:17:30;94840.88;;;22.07;64.43
56831;BME280;42713;42.676;23.352;2022-07-06T09:19:56;94838.53;;;22.05;63.38
56831;BME280;42713;42.676;23.352;2022-07-06T09:22:29;94838.69;;;22.09;63.99
56831;BME280;42713;42.676;23.352;2022-07-06T09:25:11;94845.91;;;22.08;64.70
56831;BME280;42713;42.676;23.352;2022-07-06T09:27:37;94852.34;;;22.07;64.84
56831;BME280;42713;42.676;23.352;2022-07-06T09:30:04;94842.75;;;22.15;64.93
56831;BME280;42713;42.676;23.352;2022-07-06T09:32:30;94837.78;;;22.22;64.19
56831;BME280;42713;42.676;23.352;2022-07-06T09:34:56;94850.94;;;22.19;63.33
56831;BME280;42713;42.676;23.352;2022-07-06T09:37:22;94834.44;;;22.26;64.04
56831;BME280;42713;42.676;23.352;2022-07-06T09:39:51;94836.81;;;22.36;64.18
56831;BME280;42713;42.676;23.352;2022-07-06T09:42:17;94840.91;;;22.51;63.53
56831;BME280;42713;42.676;23.352;2022-07-06T09:44:49;94830.38;;;22.63;63.67
56831;BME280;42713;42.676;23.352;2022-07-06T09:47:14;94837.16;;;22.61;62.15
56831;BME280;42713;42.676;23.352;2022-07-06T09:49:40;94836.53;;;22.46;62.61
56831;BME280;42713;42.676;23.352;2022-07-06T09:52:08;94817.81;;;22.64;63.79
56831;BME280;42713;42.676;23.352;2022-07-06T09:54:36;94812.78;;;22.71;63.06
56831;BME280;42713;42.676;23.352;2022-07-06T09:57:02;94820.19;;;22.65;61.58
56831;BME280;42713;42.676;23.352;2022-07-06T09:59:29;94815.31;;;22.67;62.27
56831;BME280;42713;42.676;23.352;2022-07-06T10:02:00;94815.28;;;22.76;62.39
56831;BME280;42713;42.676;23.352;2022-07-06T10:04:27;94819.47;;;22.95;62.42
56831;BME280;42713;42.676;23.352;2022-07-06T10:06:53;94814.13;;;22.95;61.32
56831;BME280;42713;42.676;23.352;2022-07-06T10:09:20;94807.84;;;22.99;63.20
56831;BME280;42713;42.676;23.352;2022-07-06T10:12:00;94832.78;;;23.12;62.59
56831;BME280;42713;42.676;23.352;2022-07-06T10:14:31;94844.94;;;23.01;60.73
56831;BME280;42713;42.676;23.352;2022-07-06T10:17:02;94819.19;;;22.96;60.46
56831;BME280;42713;42.676;23.352;2022-07-06T10:19:29;94810.06;;;22.89;61.48
56831;BME280;42713;42.676;23.352;2022-07-06T10:22:00;94825.56;;;23.04;62.14
56831;BME280;42713;42.676;23.352;2022-07-06T10:24:26;94801.53;;;23.04;61.49
56831;BME280;42713;42.676;23.352;2022-07-06T10:26:52;94802.63;;;23.12;60.97
56831;BME280;42713;42.676;23.352;2022-07-06T10:29:18;94800.56;;;23.17;60.26
56831;BME280;42713;42.676;23.352;2022-07-06T10:31:46;94809.25;;;23.06;60.81
56831;BME280;42713;42.676;23.352;2022-07-06T10:34:15;94806.91;;;22.95;60.48
56831;BME280;42713;42.676;23.352;2022-07-06T10:36:43;94812.56;;;23.03;61.17
56831;BME280;42713;42.676;23.352;2022-07-06T10:39:10;94800.91;;;23.07;60.20
56831;BME280;42713;42.676;23.352;2022-07-06T10:41:55;94809.53;;;23.13;61.43
56831;BME280;42713;42.676;23.352;2022-07-06T10:44:23;94800.28;;;23.10;60.16
56831;BME280;42713;42.676;23.352;2022-07-06T10:46:56;94799.53;;;23.01;60.98
56831;BME280;42713;42.676;23.352;2022-07-06T10:49:24;94791.50;;;23.01;59.88
56831;BME280;42713;42.676;23.352;2022-07-06T10:51:50;94800.28;;;23.01;60.49
56831;BME280;42713;42.676;23.352;2022-07-06T10:54:20;94810.34;;;23.05;59.17
56831;BME280;42713;42.676;23.352;2022-07-06T10:56:50;94796.66;;;23.06;58.86
56831;BME280;42713;42.676;23.352;2022-07-06T10:59:18;94800.28;;;23.10;58.59
56831;BME280;42713;42.676;23.352;2022-07-06T11:04:36;94804.97;;;23.22;58.42
56831;BME280;42713;42.676;23.352;2022-07-06T11:07:11;94794.91;;;23.19;57.80
56831;BME280;42713;42.676;23.352;2022-07-06T11:09:38;94781.19;;;23.29;58.25
56831;BME280;42713;42.676;23.352;2022-07-06T11:12:20;94804.13;;;23.39;57.56
56831;BME280;42713;42.676;23.352;2022-07-06T11:14:47;94793.78;;;23.59;58.07
56831;BME280;42713;42.676;23.352;2022-07-06T11:17:13;94797.00;;;23.73;56.85
56831;BME280;42713;42.676;23.352;2022-07-06T11:19:57;94784.94;;;23.88;56.31
56831;BME280;42713;42.676;23.352;2022-07-06T11:22:24;94789.53;;;24.09;55.02
56831;BME280;42713;42.676;23.352;2022-07-06T11:24:51;94790.34;;;24.09;54.68
56831;BME280;42713;42.676;23.352;2022-07-06T11:27:18;94780.66;;;24.17;54.27
56831;BME280;42713;42.676;23.352;2022-07-06T11:29:44;94796.38;;;23.98;53.19
56831;BME280;42713;42.676;23.352;2022-07-06T11:32:11;94785.59;;;23.85;54.81
56831;BME280;42713;42.676;23.352;2022-07-06T11:34:44;94787.53;;;23.76;55.46
56831;BME280;42713;42.676;23.352;2022-07-06T11:37:12;94773.66;;;23.83;56.17
56831;BME280;42713;42.676;23.352;2022-07-06T11:39:40;94768.53;;;23.99;55.50
56831;BME280;42713;42.676;23.352;2022-07-06T11:42:07;94772.75;;;24.21;55.35
56831;BME280;42713;42.676;23.352;2022-07-06T11:44:34;94773.66;;;24.25;53.75
56831;BME280;42713;42.676;23.352;2022-07-06T11:47:00;94776.47;;;24.29;53.41
56831;BME280;42713;42.676;23.352;2022-07-06T11:49:27;94759.31;;;24.30;51.42
56831;BME280;42713;42.676;23.352;2022-07-06T11:51:53;94767.84;;;24.44;53.83
56831;BME280;42713;42.676;23.352;2022-07-06T11:54:20;94751.25;;;24.63;52.34
56831;BME280;42713;42.676;23.352;2022-07-06T11:59:19;94746.31;;;24.53;52.35
56831;BME280;42713;42.676;23.352;2022-07-06T12:01:45;94748.00;;;24.58;52.10
56831;BME280;42713;42.676;23.352;2022-07-06T12:04:11;94739.09;;;24.53;52.06
56831;BME280;42713;42.676;23.352;2022-07-06T12:06:37;94752.38;;;24.62;52.35
56831;BME280;42713;42.676;23.352;2022-07-06T12:09:03;94736.72;;;24.52;53.62
56831;BME280;42713;42.676;23.352;2022-07-06T12:11:31;94740.16;;;24.40;52.74
56831;BME280;42713;42.676;23.352;2022-07-06T12:13:59;94747.94;;;24.33;52.57
56831;BME280;42713;42.676;23.352;2022-07-06T12:16:30;94781.66;;;24.46;51.91
56831;BME280;42713;42.676;23.352;2022-07-06T12:18:56;94754.34;;;24.53;51.90
56831;BME280;42713;42.676;23.352;2022-07-06T12:21:22;94746.13;;;24.58;51.38
56831;BME280;42713;42.676;23.352;2022-07-06T12:23:49;94741.66;;;24.62;52.97
56831;BME280;42713;42.676;23.352;2022-07-06T12:26:18;94741.28;;;24.85;52.40
56831;BME280;42713;42.676;23.352;2022-07-06T12:28:44;94764.16;;;24.82;50.86
56831;BME280;42713;42.676;23.352;2022-07-06T12:31:10;94752.88;;;24.77;51.14
56831;BME280;42713;42.676;23.352;2022-07-06T12:33:36;94740.84;;;24.95;50.79
56831;BME280;42713;42.676;23.352;2022-07-06T12:36:13;94735.63;;;25.11;51.88
56831;BME280;42713;42.676;23.352;2022-07-06T12:38:48;94758.41;;;25.30;51.22
56831;BME280;42713;42.676;23.352;2022-07-06T12:41:28;94742.19;;;25.26;49.62
56831;BME280;42713;42.676;23.352;2022-07-06T12:46:32;94747.22;;;24.91;49.72
56831;BME280;42713;42.676;23.352;2022-07-06T12:49:00;94734.81;;;24.86;50.90
56831;BME280;42713;42.676;23.352;2022-07-06T12:51:26;94730.56;;;24.85;51.21
56831;BME280;42713;42.676;23.352;2022-07-06T12:53:52;94734.69;;;24.95;50.88
56831;BME280;42713;42.676;23.352;2022-07-06T12:56:18;94711.16;;;25.13;50.31